Jump to content

  •  

SOUTHWEST AIRLINES FLIGHT WN6657 FLOWN ON 01-03-2018 BY CAPTAIN DEREK ROGY

Pilot StatsCaptain Derek Rogy (LDP86) • 1,521.5 total hours • 815 total flights [View Logbook]
FLIGHT DETAILS
StatusReceived and approved on 2018-01-02 at 22:01:59
Origin AirportSeattle-Tacoma Intl (KSEA) • Seattle, Washington, United States (433 feet MSL)
Filed Flight PlanKSEA ALDER J1 OED J126 HANDY J1 RBL J3 OAK J84 DYBLO KOAK
Destination AirportMetro Oakland Intl (KOAK) • Oakland, California, United States (6 feet MSL)
Alternate AirportNone Filed
AirlineSouthwest Airlines
AircraftBoeing 737-800 | Winglets (73H / B737-800)
FS Aircraft UsedBoeing 737-8H4 Southwest Airlines 'New Scheme' N8642E Goldstar Textures
Cruising AltitudeFL370
Distance Flown585 nautical miles
Passengers Onboard91 passengers (56.17% full)
DEPARTURE DETAILS
Time Out16:53:41
Taxi Data157,253 lbs total with 46,035 lbs of fuel onboard
Takeoff Data17:10:30 (17 minutes after leaving gate/ramp) • 143,164 lbs total • 9° pitch at 153 knots
Departure METARKSEA 030053Z 36004KT 10SM BKN120 OVC250 05/01 A3027 RMK AO2 SLP260 T00500006
ARRIVAL DETAILS
Landing Data18:47:46 • 133,677 lbs total • 5° pitch doing 136 knots at a rate of -98.43 feet/minute with 11,540 lbs of fuel onboard
Time In18:54:42 (7 minutes after landing)
Ramp Weight133,339 lbs total
Total Fuel Used34,495 lbs
Total Block Time02:01:22 (2 hours) while 24 minutes were spent on the ground
Arrival METARKOAK 030253Z 14003KT 7SM SCT150 BKN200 12/08 A3010 RMK AO2 SLP191 T01170083 58007
MISCELLANEOUS DETAILS
LiveDISPATCH Version4.8.3.1
FS Version
FSUIPC Version5.12
OS VersionWindows 7 32-bit
Screen Resolution1920 x 1200
Pilot's CommentsNo Comments Reported
FLIGHT MAP